sensor_id;sensor_type;location;lat;lon;timestamp;pressure;altitude;pressure_sealevel;temperature;humidity
48244;BME280;34053;51.088;6.572;2023-03-19T00:00:24;100575.81;;;13.10;66.79
48244;BME280;34053;51.088;6.572;2023-03-19T00:02:55;100574.16;;;13.07;67.09
48244;BME280;34053;51.088;6.572;2023-03-19T00:05:25;100581.91;;;13.10;66.67
48244;BME280;34053;51.088;6.572;2023-03-19T00:07:56;100572.19;;;13.12;66.20
48244;BME280;34053;51.088;6.572;2023-03-19T00:10:26;100569.53;;;13.12;66.17
48244;BME280;34053;51.088;6.572;2023-03-19T00:12:56;100579.84;;;13.18;66.41
48244;BME280;34053;51.088;6.572;2023-03-19T00:15:27;100583.72;;;13.10;67.17
48244;BME280;34053;51.088;6.572;2023-03-19T00:17:57;100581.06;;;13.10;67.20
48244;BME280;34053;51.088;6.572;2023-03-19T00:20:28;100577.81;;;12.57;71.14
48244;BME280;34053;51.088;6.572;2023-03-19T00:22:58;100581.00;;;12.89;67.31
48244;BME280;34053;51.088;6.572;2023-03-19T00:25:29;100580.81;;;12.94;67.01
48244;BME280;34053;51.088;6.572;2023-03-19T00:27:59;100588.50;;;13.00;66.70
48244;BME280;34053;51.088;6.572;2023-03-19T00:30:30;100583.25;;;12.98;66.92
48244;BME280;34053;51.088;6.572;2023-03-19T00:33:01;100579.06;;;12.94;67.26
48244;BME280;34053;51.088;6.572;2023-03-19T00:35:31;100578.00;;;12.98;67.18
48244;BME280;34053;51.088;6.572;2023-03-19T00:38:02;100589.47;;;12.97;66.88
48244;BME280;34053;51.088;6.572;2023-03-19T00:40:33;100595.75;;;12.93;66.69
48244;BME280;34053;51.088;6.572;2023-03-19T00:43:04;100580.69;;;12.97;66.25
48244;BME280;34053;51.088;6.572;2023-03-19T00:45:35;100576.59;;;12.89;66.61
48244;BME280;34053;51.088;6.572;2023-03-19T00:48:06;100579.16;;;12.91;66.65
48244;BME280;34053;51.088;6.572;2023-03-19T00:50:37;100581.00;;;12.89;66.26
48244;BME280;34053;51.088;6.572;2023-03-19T00:53:07;100577.41;;;12.91;65.93
48244;BME280;34053;51.088;6.572;2023-03-19T00:55:38;100582.88;;;12.85;66.12
48244;BME280;34053;51.088;6.572;2023-03-19T00:58:08;100583.81;;;12.84;66.27
48244;BME280;34053;51.088;6.572;2023-03-19T01:00:39;100577.84;;;12.79;67.01
48244;BME280;34053;51.088;6.572;2023-03-19T01:03:10;100582.09;;;12.83;65.98
48244;BME280;34053;51.088;6.572;2023-03-19T01:05:40;100573.34;;;12.83;65.97
48244;BME280;34053;51.088;6.572;2023-03-19T01:08:11;100573.28;;;12.84;66.07
48244;BME280;34053;51.088;6.572;2023-03-19T01:10:42;100569.97;;;12.79;65.69
48244;BME280;34053;51.088;6.572;2023-03-19T01:13:13;100565.75;;;12.75;66.14
48244;BME280;34053;51.088;6.572;2023-03-19T01:15:43;100564.88;;;12.74;65.88
48244;BME280;34053;51.088;6.572;2023-03-19T01:18:14;100566.03;;;12.67;66.67
48244;BME280;34053;51.088;6.572;2023-03-19T01:20:44;100573.84;;;12.69;66.48
48244;BME280;34053;51.088;6.572;2023-03-19T01:23:15;100566.94;;;12.66;66.74
48244;BME280;34053;51.088;6.572;2023-03-19T01:25:45;100571.28;;;12.67;66.50
48244;BME280;34053;51.088;6.572;2023-03-19T01:28:17;100576.63;;;12.66;66.47
48244;BME280;34053;51.088;6.572;2023-03-19T01:30:47;100571.47;;;12.63;66.76
48244;BME280;34053;51.088;6.572;2023-03-19T01:33:18;100569.75;;;12.62;66.72
48244;BME280;34053;51.088;6.572;2023-03-19T01:35:49;100575.00;;;12.62;66.56
48244;BME280;34053;51.088;6.572;2023-03-19T01:38:20;100562.09;;;12.55;67.07
48244;BME280;34053;51.088;6.572;2023-03-19T01:40:51;100564.63;;;12.58;65.90
48244;BME280;34053;51.088;6.572;2023-03-19T01:43:27;100569.06;;;12.56;66.37
48244;BME280;34053;51.088;6.572;2023-03-19T01:46:01;100565.81;;;12.50;66.33
48244;BME280;34053;51.088;6.572;2023-03-19T01:51:12;100568.59;;;12.45;66.27
48244;BME280;34053;51.088;6.572;2023-03-19T01:53:47;100569.66;;;12.41;67.28
48244;BME280;34053;51.088;6.572;2023-03-19T01:56:21;100573.28;;;12.37;66.90
48244;BME280;34053;51.088;6.572;2023-03-19T01:58:56;100560.22;;;12.35;66.67
48244;BME280;34053;51.088;6.572;2023-03-19T02:01:31;100566.38;;;12.34;66.58
48244;BME280;34053;51.088;6.572;2023-03-19T02:04:03;100561.06;;;12.36;66.48
48244;BME280;34053;51.088;6.572;2023-03-19T02:06:35;100558.66;;;12.30;67.01
48244;BME280;34053;51.088;6.572;2023-03-19T02:09:07;100559.47;;;12.32;66.63
48244;BME280;34053;51.088;6.572;2023-03-19T02:11:38;100560.31;;;12.32;66.78
48244;BME280;34053;51.088;6.572;2023-03-19T02:14:09;100563.00;;;12.31;66.58
48244;BME280;34053;51.088;6.572;2023-03-19T02:16:39;100559.63;;;12.27;66.97
48244;BME280;34053;51.088;6.572;2023-03-19T02:19:14;100563.19;;;12.26;66.87
48244;BME280;34053;51.088;6.572;2023-03-19T02:21:47;100565.97;;;12.21;67.24
48244;BME280;34053;51.088;6.572;2023-03-19T02:24:31;100555.34;;;12.24;67.28
48244;BME280;34053;51.088;6.572;2023-03-19T02:27:05;100552.00;;;12.19;67.60
48244;BME280;34053;51.088;6.572;2023-03-19T02:29:37;100548.38;;;12.23;66.85
48244;BME280;34053;51.088;6.572;2023-03-19T02:32:07;100551.91;;;12.22;67.37
48244;BME280;34053;51.088;6.572;2023-03-19T02:34:40;100556.31;;;12.22;66.63
48244;BME280;34053;51.088;6.572;2023-03-19T02:37:20;100558.16;;;12.20;67.31
48244;BME280;34053;51.088;6.572;2023-03-19T02:39:59;100556.53;;;12.16;67.41
48244;BME280;34053;51.088;6.572;2023-03-19T02:42:34;100559.22;;;12.14;68.07
48244;BME280;34053;51.088;6.572;2023-03-19T02:45:05;100550.53;;;12.12;67.72
48244;BME280;34053;51.088;6.572;2023-03-19T02:47:36;100556.81;;;12.08;68.23
48244;BME280;34053;51.088;6.572;2023-03-19T02:50:07;100561.38;;;12.03;68.20
48244;BME280;34053;51.088;6.572;2023-03-19T02:52:38;100561.38;;;12.03;68.41
48244;BME280;34053;51.088;6.572;2023-03-19T02:55:09;100551.72;;;12.03;68.35
48244;BME280;34053;51.088;6.572;2023-03-19T02:57:39;100555.44;;;11.98;68.24
48244;BME280;34053;51.088;6.572;2023-03-19T03:00:10;100562.47;;;11.97;68.30
48244;BME280;34053;51.088;6.572;2023-03-19T03:02:41;100563.31;;;11.98;68.52
48244;BME280;34053;51.088;6.572;2023-03-19T03:05:12;100559.78;;;11.99;68.41
48244;BME280;34053;51.088;6.572;2023-03-19T03:07:43;100564.25;;;11.95;68.86
48244;BME280;34053;51.088;6.572;2023-03-19T03:10:15;100561.78;;;11.90;69.26
48244;BME280;34053;51.088;6.572;2023-03-19T03:12:45;100564.47;;;11.89;68.71
48244;BME280;34053;51.088;6.572;2023-03-19T03:15:16;100557.44;;;11.89;69.06
48244;BME280;34053;51.088;6.572;2023-03-19T03:17:47;100564.31;;;11.93;67.91
48244;BME280;34053;51.088;6.572;2023-03-19T03:20:18;100568.56;;;11.98;68.02
48244;BME280;34053;51.088;6.572;2023-03-19T03:22:50;100575.84;;;11.89;68.68
48244;BME280;34053;51.088;6.572;2023-03-19T03:25:21;100561.88;;;11.87;68.24
48244;BME280;34053;51.088;6.572;2023-03-19T03:27:51;100571.41;;;11.91;68.08
48244;BME280;34053;51.088;6.572;2023-03-19T03:30:22;100576.59;;;11.93;67.78
48244;BME280;34053;51.088;6.572;2023-03-19T03:32:53;100583.50;;;11.95;67.33
48244;BME280;34053;51.088;6.572;2023-03-19T03:35:23;100576.91;;;11.84;68.40
48244;BME280;34053;51.088;6.572;2023-03-19T03:37:54;100582.59;;;11.96;67.26
48244;BME280;34053;51.088;6.572;2023-03-19T03:40:24;100582.81;;;11.90;67.39
48244;BME280;34053;51.088;6.572;2023-03-19T03:42:56;100579.28;;;11.91;67.58
48244;BME280;34053;51.088;6.572;2023-03-19T03:45:29;100582.72;;;11.93;67.62
48244;BME280;34053;51.088;6.572;2023-03-19T03:48:00;100595.06;;;11.91;67.75
48244;BME280;34053;51.088;6.572;2023-03-19T03:50:31;100588.91;;;11.91;67.90
48244;BME280;34053;51.088;6.572;2023-03-19T03:53:01;100593.28;;;11.92;67.14
48244;BME280;34053;51.088;6.572;2023-03-19T03:55:32;100596.03;;;11.89;67.85
48244;BME280;34053;51.088;6.572;2023-03-19T03:58:03;100594.25;;;11.89;67.52
48244;BME280;34053;51.088;6.572;2023-03-19T04:00:33;100597.63;;;11.93;67.60
48244;BME280;34053;51.088;6.572;2023-03-19T04:03:04;100601.22;;;11.90;68.51
48244;BME280;34053;51.088;6.572;2023-03-19T04:05:35;100601.53;;;11.81;69.87
48244;BME280;34053;51.088;6.572;2023-03-19T04:08:07;100595.97;;;11.90;68.13
48244;BME280;34053;51.088;6.572;2023-03-19T04:10:41;100595.16;;;11.88;68.49
48244;BME280;34053;51.088;6.572;2023-03-19T04:13:12;100593.44;;;11.87;68.33
48244;BME280;34053;51.088;6.572;2023-03-19T04:15:43;100597.78;;;11.88;68.19
48244;BME280;34053;51.088;6.572;2023-03-19T04:18:14;100597.69;;;11.91;67.64
48244;BME280;34053;51.088;6.572;2023-03-19T04:20:45;100604.69;;;11.91;68.17
48244;BME280;34053;51.088;6.572;2023-03-19T04:23:15;100602.13;;;11.89;68.39
48244;BME280;34053;51.088;6.572;2023-03-19T04:25:46;100604.66;;;11.92;68.06
48244;BME280;34053;51.088;6.572;2023-03-19T04:28:17;100612.44;;;11.95;68.27
48244;BME280;34053;51.088;6.572;2023-03-19T04:30:47;100611.59;;;11.95;68.44
48244;BME280;34053;51.088;6.572;2023-03-19T04:33:18;100613.53;;;11.90;68.21
48244;BME280;34053;51.088;6.572;2023-03-19T04:35:48;100609.00;;;11.93;67.95
48244;BME280;34053;51.088;6.572;2023-03-19T04:38:19;100617.69;;;11.95;68.05
48244;BME280;34053;51.088;6.572;2023-03-19T04:40:49;100619.28;;;12.01;68.37
48244;BME280;34053;51.088;6.572;2023-03-19T04:43:22;100619.41;;;11.96;68.32
48244;BME280;34053;51.088;6.572;2023-03-19T04:45:52;100625.56;;;11.97;68.78
48244;BME280;34053;51.088;6.572;2023-03-19T04:48:23;100625.56;;;11.95;69.15
48244;BME280;34053;51.088;6.572;2023-03-19T04:50:53;100629.19;;;11.93;68.95
48244;BME280;34053;51.088;6.572;2023-03-19T04:53:26;100623.84;;;11.94;68.35
48244;BME280;34053;51.088;6.572;2023-03-19T04:55:56;100628.31;;;11.92;68.57
48244;BME280;34053;51.088;6.572;2023-03-19T04:58:27;100641.34;;;11.95;68.49
48244;BME280;34053;51.088;6.572;2023-03-19T05:00:57;100629.38;;;11.87;68.95
48244;BME280;34053;51.088;6.572;2023-03-19T05:03:28;100636.31;;;11.89;68.86
48244;BME280;34053;51.088;6.572;2023-03-19T05:05:58;100638.88;;;11.91;68.84
48244;BME280;34053;51.088;6.572;2023-03-19T05:08:29;100636.22;;;11.92;68.59
48244;BME280;34053;51.088;6.572;2023-03-19T05:10:59;100638.94;;;11.89;68.90
48244;BME280;34053;51.088;6.572;2023-03-19T05:13:30;100645.00;;;11.91;69.06
48244;BME280;34053;51.088;6.572;2023-03-19T05:16:01;100646.59;;;11.95;69.55
48244;BME280;34053;51.088;6.572;2023-03-19T05:18:31;100652.91;;;11.91;69.49
48244;BME280;34053;51.088;6.572;2023-03-19T05:21:02;100647.47;;;11.98;68.35
48244;BME280;34053;51.088;6.572;2023-03-19T05:23:34;100647.47;;;11.98;68.41
48244;BME280;34053;51.088;6.572;2023-03-19T05:26:04;100645.69;;;11.98;68.05
48244;BME280;34053;51.088;6.572;2023-03-19T05:28:36;100641.34;;;11.97;68.53
48244;BME280;34053;51.088;6.572;2023-03-19T05:31:06;100640.38;;;12.00;68.37
48244;BME280;34053;51.088;6.572;2023-03-19T05:33:37;100645.53;;;12.03;68.41
48244;BME280;34053;51.088;6.572;2023-03-19T05:36:08;100637.81;;;11.98;68.41
48244;BME280;34053;51.088;6.572;2023-03-19T05:38:38;100642.22;;;11.96;69.50
48244;BME280;34053;51.088;6.572;2023-03-19T05:41:09;100642.09;;;12.01;68.31
48244;BME280;34053;51.088;6.572;2023-03-19T05:43:40;100642.25;;;11.94;69.07
48244;BME280;34053;51.088;6.572;2023-03-19T05:46:10;100648.28;;;12.00;68.57
48244;BME280;34053;51.088;6.572;2023-03-19T05:48:41;100649.84;;;12.05;68.39
48244;BME280;34053;51.088;6.572;2023-03-19T05:51:11;100655.41;;;11.94;68.65
48244;BME280;34053;51.088;6.572;2023-03-19T05:53:42;100657.00;;;12.00;68.16
48244;BME280;34053;51.088;6.572;2023-03-19T05:56:12;100657.00;;;12.00;68.24
48244;BME280;34053;51.088;6.572;2023-03-19T05:58:43;100662.31;;;11.99;68.63
48244;BME280;34053;51.088;6.572;2023-03-19T06:01:13;100664.13;;;11.98;68.40
48244;BME280;34053;51.088;6.572;2023-03-19T06:03:44;100663.13;;;12.01;68.35
48244;BME280;34053;51.088;6.572;2023-03-19T06:06:14;100667.59;;;11.99;68.68
48244;BME280;34053;51.088;6.572;2023-03-19T06:08:45;100670.13;;;12.02;68.48
48244;BME280;34053;51.088;6.572;2023-03-19T06:11:16;100677.13;;;12.01;68.62
48244;BME280;34053;51.088;6.572;2023-03-19T06:13:46;100682.44;;;12.00;68.65
48244;BME280;34053;51.088;6.572;2023-03-19T06:16:16;100683.31;;;12.00;69.22
48244;BME280;34053;51.088;6.572;2023-03-19T06:18:47;100685.16;;;11.96;69.50
48244;BME280;34053;51.088;6.572;2023-03-19T06:21:17;100683.41;;;11.95;69.48
48244;BME280;34053;51.088;6.572;2023-03-19T06:23:48;100679.88;;;11.96;69.46
48244;BME280;34053;51.088;6.572;2023-03-19T06:26:20;100686.25;;;11.89;70.51
48244;BME280;34053;51.088;6.572;2023-03-19T06:28:51;100687.53;;;11.77;72.07
48244;BME280;34053;51.088;6.572;2023-03-19T06:31:22;100681.50;;;11.74;71.82
48244;BME280;34053;51.088;6.572;2023-03-19T06:33:53;100686.84;;;11.71;72.43
48244;BME280;34053;51.088;6.572;2023-03-19T06:36:24;100688.88;;;11.62;73.63
48244;BME280;34053;51.088;6.572;2023-03-19T06:38:55;100690.03;;;11.54;74.29
48244;BME280;34053;51.088;6.572;2023-03-19T06:41:25;100691.56;;;11.61;72.79
48244;BME280;34053;51.088;6.572;2023-03-19T06:43:56;100690.38;;;11.70;71.88
48244;BME280;34053;51.088;6.572;2023-03-19T06:46:27;100689.84;;;11.60;73.91
48244;BME280;34053;51.088;6.572;2023-03-19T06:48:57;100685.75;;;11.78;72.23
48244;BME280;34053;51.088;6.572;2023-03-19T06:51:28;100687.88;;;11.67;73.25
48244;BME280;34053;51.088;6.572;2023-03-19T06:53:58;100696.47;;;11.72;72.53
48244;BME280;34053;51.088;6.572;2023-03-19T06:56:29;100681.22;;;11.83;72.73
48244;BME280;34053;51.088;6.572;2023-03-19T06:58:59;100692.03;;;11.74;74.16
48244;BME280;34053;51.088;6.572;2023-03-19T07:01:30;100697.78;;;11.58;75.47
48244;BME280;34053;51.088;6.572;2023-03-19T07:04:00;100694.13;;;11.62;75.09
48244;BME280;34053;51.088;6.572;2023-03-19T07:06:30;100692.31;;;11.64;74.55
48244;BME280;34053;51.088;6.572;2023-03-19T07:09:03;100700.19;;;11.64;75.54
48244;BME280;34053;51.088;6.572;2023-03-19T07:11:33;100696.00;;;11.59;76.74
48244;BME280;34053;51.088;6.572;2023-03-19T07:14:04;100701.31;;;11.57;76.82
48244;BME280;34053;51.088;6.572;2023-03-19T07:16:35;100709.41;;;11.49;77.48
48244;BME280;34053;51.088;6.572;2023-03-19T07:19:05;100713.25;;;11.68;75.77
48244;BME280;34053;51.088;6.572;2023-03-19T07:21:36;100715.53;;;11.78;75.05
48244;BME280;34053;51.088;6.572;2023-03-19T07:24:07;100714.56;;;11.81;75.82
48244;BME280;34053;51.088;6.572;2023-03-19T07:26:37;100716.34;;;11.80;76.11
48244;BME280;34053;51.088;6.572;2023-03-19T07:29:08;100724.88;;;11.87;74.35
48244;BME280;34053;51.088;6.572;2023-03-19T07:31:39;100731.38;;;12.04;74.13
48244;BME280;34053;51.088;6.572;2023-03-19T07:34:10;100740.19;;;12.03;73.98
48244;BME280;34053;51.088;6.572;2023-03-19T07:36:40;100744.50;;;12.05;73.53
48244;BME280;34053;51.088;6.572;2023-03-19T07:39:11;100742.72;;;12.06;73.59
48244;BME280;34053;51.088;6.572;2023-03-19T07:41:41;100742.56;;;12.10;73.27
48244;BME280;34053;51.088;6.572;2023-03-19T07:44:15;100744.28;;;12.11;72.89
48244;BME280;34053;51.088;6.572;2023-03-19T07:46:45;100742.50;;;12.12;73.91
48244;BME280;34053;51.088;6.572;2023-03-19T07:49:16;100749.63;;;12.10;74.12
48244;BME280;34053;51.088;6.572;2023-03-19T07:51:46;100748.50;;;12.17;73.23
48244;BME280;34053;51.088;6.572;2023-03-19T07:54:17;100745.72;;;12.22;73.11
48244;BME280;34053;51.088;6.572;2023-03-19T07:56:47;100746.56;;;12.22;73.32
48244;BME280;34053;51.088;6.572;2023-03-19T07:59:17;100746.47;;;12.25;72.89
48244;BME280;34053;51.088;6.572;2023-03-19T08:01:48;100746.66;;;12.19;73.87
48244;BME280;34053;51.088;6.572;2023-03-19T08:04:18;100748.97;;;12.28;73.00
48244;BME280;34053;51.088;6.572;2023-03-19T08:06:49;100744.38;;;12.35;72.68
48244;BME280;34053;51.088;6.572;2023-03-19T08:09:19;100749.56;;;12.37;73.35
48244;BME280;34053;51.088;6.572;2023-03-19T08:11:50;100745.06;;;12.40;72.67
48244;BME280;34053;51.088;6.572;2023-03-19T08:14:20;100742.28;;;12.45;73.08
48244;BME280;34053;51.088;6.572;2023-03-19T08:16:51;100745.63;;;12.50;72.89
48244;BME280;34053;51.088;6.572;2023-03-19T08:19:22;100740.47;;;12.47;72.89
48244;BME280;34053;51.088;6.572;2023-03-19T08:21:53;100745.81;;;12.44;73.26
48244;BME280;34053;51.088;6.572;2023-03-19T08:24:23;100754.44;;;12.49;72.85
48244;BME280;34053;51.088;6.572;2023-03-19T08:26:54;100751.00;;;12.47;73.27
48244;BME280;34053;51.088;6.572;2023-03-19T08:29:25;100761.03;;;12.61;73.14
48244;BME280;34053;51.088;6.572;2023-03-19T08:31:56;100753.22;;;12.59;73.29
48244;BME280;34053;51.088;6.572;2023-03-19T08:34:28;100756.38;;;12.69;73.02
48244;BME280;34053;51.088;6.572;2023-03-19T08:36:58;100751.09;;;12.69;73.05
48244;BME280;34053;51.088;6.572;2023-03-19T08:39:28;100762.72;;;12.64;73.13
48244;BME280;34053;51.088;6.572;2023-03-19T08:41:59;100753.69;;;12.71;73.17
48244;BME280;34053;51.088;6.572;2023-03-19T08:44:29;100764.75;;;12.81;72.93
48244;BME280;34053;51.088;6.572;2023-03-19T08:47:00;100767.66;;;12.73;73.05
48244;BME280;34053;51.088;6.572;2023-03-19T08:49:31;100771.13;;;12.73;72.86
48244;BME280;34053;51.088;6.572;2023-03-19T08:52:01;100773.75;;;12.73;72.74
48244;BME280;34053;51.088;6.572;2023-03-19T08:54:32;100765.44;;;12.86;72.79
48244;BME280;34053;51.088;6.572;2023-03-19T08:57:03;100761.47;;;12.74;72.82
48244;BME280;34053;51.088;6.572;2023-03-19T08:59:33;100759.25;;;12.87;72.38
48244;BME280;34053;51.088;6.572;2023-03-19T09:02:04;100756.66;;;12.85;72.65
48244;BME280;34053;51.088;6.572;2023-03-19T09:04:34;100767.56;;;12.76;72.92
48244;BME280;34053;51.088;6.572;2023-03-19T09:07:08;100768.81;;;12.89;72.51
48244;BME280;34053;51.088;6.572;2023-03-19T09:09:44;100772.88;;;12.98;72.79
48244;BME280;34053;51.088;6.572;2023-03-19T09:12:17;100770.09;;;13.03;72.25
48244;BME280;34053;51.088;6.572;2023-03-19T09:14:48;100769.91;;;13.07;72.32
48244;BME280;34053;51.088;6.572;2023-03-19T09:17:18;100773.00;;;12.95;72.17
48244;BME280;34053;51.088;6.572;2023-03-19T09:19:49;100781.72;;;12.97;72.19
48244;BME280;34053;51.088;6.572;2023-03-19T09:22:19;100779.03;;;12.99;71.90
48244;BME280;34053;51.088;6.572;2023-03-19T09:24:50;100785.78;;;13.06;72.03
48244;BME280;34053;51.088;6.572;2023-03-19T09:27:21;100780.28;;;13.12;71.79
48244;BME280;34053;51.088;6.572;2023-03-19T09:29:52;100784.56;;;13.15;71.51
48244;BME280;34053;51.088;6.572;2023-03-19T09:32:23;100787.03;;;13.19;71.47
48244;BME280;34053;51.088;6.572;2023-03-19T09:34:54;100790.25;;;13.28;71.32
48244;BME280;34053;51.088;6.572;2023-03-19T09:37:24;100790.50;;;13.21;71.74
48244;BME280;34053;51.088;6.572;2023-03-19T09:39:55;100787.00;;;13.21;71.19
48244;BME280;34053;51.088;6.572;2023-03-19T09:45:21;100789.16;;;13.33;71.85
48244;BME280;34053;51.088;6.572;2023-03-19T09:47:55;100791.75;;;13.35;71.53
48244;BME280;34053;51.088;6.572;2023-03-19T09:50:28;100790.75;;;13.39;71.27
48244;BME280;34053;51.088;6.572;2023-03-19T09:55:43;100798.06;;;13.31;70.10
48244;BME280;34053;51.088;6.572;2023-03-19T09:58:19;100793.22;;;13.18;70.59
48244;BME280;34053;51.088;6.572;2023-03-19T10:00:52;100794.38;;;13.35;69.94
48244;BME280;34053;51.088;6.572;2023-03-19T10:06:48;100795.53;;;13.28;70.19
48244;BME280;34053;51.088;6.572;2023-03-19T10:15:27;100805.16;;;13.29;70.42
48244;BME280;34053;51.088;6.572;2023-03-19T10:18:18;100802.66;;;13.26;71.46
48244;BME280;34053;51.088;6.572;2023-03-19T10:21:11;100807.78;;;13.29;71.91
48244;BME280;34053;51.088;6.572;2023-03-19T10:23:52;100798.72;;;13.36;72.04
48244;BME280;34053;51.088;6.572;2023-03-19T10:26:29;100803.03;;;13.40;71.96
48244;BME280;34053;51.088;6.572;2023-03-19T10:29:13;100807.97;;;13.48;71.84
48244;BME280;34053;51.088;6.572;2023-03-19T10:34:41;100802.84;;;13.45;71.58
48244;BME280;34053;51.088;6.572;2023-03-19T10:37:21;100814.13;;;13.48;71.44
48244;BME280;34053;51.088;6.572;2023-03-19T10:40:00;100809.09;;;13.42;71.46
48244;BME280;34053;51.088;6.572;2023-03-19T10:45:33;100814.00;;;13.51;70.98
48244;BME280;34053;51.088;6.572;2023-03-19T10:48:04;100815.72;;;13.52;71.43
48244;BME280;34053;51.088;6.572;2023-03-19T10:50:47;100810.09;;;13.62;70.75
48244;BME280;34053;51.088;6.572;2023-03-19T10:53:45;100817.84;;;13.66;69.75
48244;BME280;34053;51.088;6.572;2023-03-19T11:01:43;100823.41;;;13.59;69.07
48244;BME280;34053;51.088;6.572;2023-03-19T11:04:19;100817.72;;;13.69;68.65
48244;BME280;34053;51.088;6.572;2023-03-19T11:06:54;100824.09;;;13.64;68.40
48244;BME280;34053;51.088;6.572;2023-03-19T11:09:33;100827.28;;;13.72;68.61
48244;BME280;34053;51.088;6.572;2023-03-19T11:14:48;100827.91;;;14.01;70.11
48244;BME280;34053;51.088;6.572;2023-03-19T11:17:27;100833.34;;;13.98;70.04
48244;BME280;34053;51.088;6.572;2023-03-19T11:22:45;100825.97;;;14.06;70.31
48244;BME280;34053;51.088;6.572;2023-03-19T11:28:19;100827.06;;;14.45;70.05
48244;BME280;34053;51.088;6.572;2023-03-19T11:41:48;100837.53;;;14.02;67.98
48244;BME280;34053;51.088;6.572;2023-03-19T11:50:21;100834.44;;;14.14;68.12
48244;BME280;34053;51.088;6.572;2023-03-19T11:56:13;100837.75;;;14.20;66.79
48244;BME280;34053;51.088;6.572;2023-03-19T12:12:51;100824.44;;;14.23;69.67
48244;BME280;34053;51.088;6.572;2023-03-19T12:15:28;100822.44;;;14.28;70.17
48244;BME280;34053;51.088;6.572;2023-03-19T12:20:55;100819.06;;;14.46;70.10
48244;BME280;34053;51.088;6.572;2023-03-19T12:34:55;100823.56;;;14.65;68.98
48244;BME280;34053;51.088;6.572;2023-03-19T12:37:34;100819.69;;;14.74;68.96
48244;BME280;34053;51.088;6.572;2023-03-19T12:43:25;100823.44;;;14.68;67.67
48244;BME280;34053;51.088;6.572;2023-03-19T12:46:06;100827.50;;;14.77;68.28
48244;BME280;34053;51.088;6.572;2023-03-19T12:48:45;100820.56;;;14.74;68.32
48244;BME280;34053;51.088;6.572;2023-03-19T12:51:19;100819.31;;;14.83;68.59
48244;BME280;34053;51.088;6.572;2023-03-19T12:56:43;100823.75;;;14.83;67.57
48244;BME280;34053;51.088;6.572;2023-03-19T13:10:31;100826.28;;;15.05;65.04
48244;BME280;34053;51.088;6.572;2023-03-19T13:13:17;100823.63;;;15.05;65.13
48244;BME280;34053;51.088;6.572;2023-03-19T13:15:53;100827.94;;;15.07;64.41
48244;BME280;34053;51.088;6.572;2023-03-19T13:23:37;100823.59;;;15.06;65.22
48244;BME280;34053;51.088;6.572;2023-03-19T13:26:10;100816.38;;;14.89;65.24
48244;BME280;34053;51.088;6.572;2023-03-19T13:29:00;100819.31;;;15.04;65.37
48244;BME280;34053;51.088;6.572;2023-03-19T13:31:35;100818.09;;;14.90;64.99
48244;BME280;34053;51.088;6.572;2023-03-19T13:34:24;100825.50;;;15.03;65.51
48244;BME280;34053;51.088;6.572;2023-03-19T13:39:31;100816.91;;;15.18;65.37
48244;BME280;34053;51.088;6.572;2023-03-19T13:45:26;100819.34;;;15.23;64.87
48244;BME280;34053;51.088;6.572;2023-03-19T13:47:52;100816.19;;;15.34;65.19
48244;BME280;34053;51.088;6.572;2023-03-19T13:50:27;100814.78;;;15.46;64.73
48244;BME280;34053;51.088;6.572;2023-03-19T13:53:22;100808.63;;;15.64;63.03
48244;BME280;34053;51.088;6.572;2023-03-19T13:56:11;100811.78;;;15.72;62.68
48244;BME280;34053;51.088;6.572;2023-03-19T13:59:17;100811.84;;;15.52;62.25
48244;BME280;34053;51.088;6.572;2023-03-19T14:01:43;100815.06;;;15.58;62.05
48244;BME280;34053;51.088;6.572;2023-03-19T14:04:31;100802.63;;;15.80;62.68
48244;BME280;34053;51.088;6.572;2023-03-19T14:09:47;100817.63;;;15.79;62.51
48244;BME280;34053;51.088;6.572;2023-03-19T14:14:58;100819.41;;;15.79;62.40
48244;BME280;34053;51.088;6.572;2023-03-19T14:17:33;100824.84;;;15.76;62.80
48244;BME280;34053;51.088;6.572;2023-03-19T14:20:30;100818.91;;;15.70;62.02
48244;BME280;34053;51.088;6.572;2023-03-19T14:28:54;100823.38;;;15.70;60.34
48244;BME280;34053;51.088;6.572;2023-03-19T14:34:16;100828.38;;;15.76;60.75
48244;BME280;34053;51.088;6.572;2023-03-19T14:36:59;100830.44;;;15.69;57.99
48244;BME280;34053;51.088;6.572;2023-03-19T14:39:33;100825.94;;;15.71;58.75
48244;BME280;34053;51.088;6.572;2023-03-19T14:42:25;100832.28;;;15.67;58.91
48244;BME280;34053;51.088;6.572;2023-03-19T14:50:37;100836.59;;;15.70;58.26
48244;BME280;34053;51.088;6.572;2023-03-19T14:53:45;100827.56;;;15.74;59.16
48244;BME280;34053;51.088;6.572;2023-03-19T14:56:23;100841.63;;;15.74;58.44
48244;BME280;34053;51.088;6.572;2023-03-19T14:58:56;100830.59;;;15.85;59.69
48244;BME280;34053;51.088;6.572;2023-03-19T15:01:26;100843.34;;;15.76;58.84
48244;BME280;34053;51.088;6.572;2023-03-19T15:04:05;100828.38;;;15.76;58.75
48244;BME280;34053;51.088;6.572;2023-03-19T15:06:52;100845.78;;;15.80;59.39
48244;BME280;34053;51.088;6.572;2023-03-19T15:09:29;100836.81;;;15.84;59.42
48244;BME280;34053;51.088;6.572;2023-03-19T15:17:35;100844.06;;;15.79;60.62
48244;BME280;34053;51.088;6.572;2023-03-19T15:20:19;100840.78;;;15.74;60.61
48244;BME280;34053;51.088;6.572;2023-03-19T15:22:55;100846.41;;;15.87;61.09
48244;BME280;34053;51.088;6.572;2023-03-19T15:25:26;100844.94;;;15.80;61.23
48244;BME280;34053;51.088;6.572;2023-03-19T15:28:06;100842.97;;;15.85;61.24
48244;BME280;34053;51.088;6.572;2023-03-19T15:30:38;100847.09;;;15.71;60.29
48244;BME280;34053;51.088;6.572;2023-03-19T15:35:49;100848.81;;;15.53;58.46
48244;BME280;34053;51.088;6.572;2023-03-19T15:38:21;100843.94;;;15.44;56.93
48244;BME280;34053;51.088;6.572;2023-03-19T15:40:55;100858.38;;;15.37;57.73